Soaring Guidance
Issued by NWS Reno, NV

Home | Current Version | Previous Version | Text Only | Print | Product List | Glossary On
Versions: 1 2 3 4 5 6 7 8 9 10 11 12 13 14
000
UXUS97 KREV 301350
SRGREV

SOARING FORECAST
NATIONAL WEATHER SERVICE - RENO NV
700 AM PDT FRI SEP 30 2016

THIS SOARING FORECAST IS FOR THE EASTERN SIERRA AND WESTERN NEVADA
WITH SPECIFIC INDICES FOR THE GREATER RENO AREA.

THIS FORECAST IS PREPARED DAILY BY 700 AM AND IS NOT UPDATED.

FOR CURRENT FLIGHT CONDITIONS...FORECASTS...AND ADVISORIES...ACCESS
YOUR LOCAL BRIEFING OUTLET OR FLIGHT SERVICE STATION.

*******************************************************************
FORECASTED LOCAL INDICES FOR RENO:        TODAY     YESTERDAY
FORECASTED MAX TEMP AT RENO (DEG F).....     78          85
FORECASTED TRIGGER TEMPERATURE (DEG F)..     69          75
   EXCEEDED YESTERDAY BY 1055 AM PDT
FORECASTED MAXIMUM ALTITUDE (FT MSL)....  13400       17900
FORECASTED SOARING INDEX (FPM)..........    702        1257
FORECASTED K-INDEX.........VALID 18Z....     13          13
FORECASTED K-INDEX.........VALID 00Z....     22          22
FORECASTED LIFTED INDEX....VALID 18Z....      4           4
FORECASTED LIFTED INDEX....VALID 00Z....      3           2

AFTERNOON WINDS ALOFT FORECAST
MSL (FT) WIND/TEMP
9000  2225/+08
10000 2129/+05
12000 2136/+01
14000 2137/-03
16000 2139/-07
18000 2143/-12
24000 2251/-23
30000 2259/-40
34000 2266/-49
39000 2271/-57

SLIDE MOUNTAIN DATA:
     DATE       TIME     TEMP  DEWPT   RH         WIND (MPH)
                        (F)   (F)           | DIR  SPEED GUST
2016-09-30    05:20      41    29     50    | 232   14   24
2016-09-30    05:00      42    30     53    | 231   14   22
2016-09-30    04:50      42    31     57    | 234   14   23
2016-09-30    04:30      42    32     57    | 234   14   22

RENO TAF FORECAST:
KRNO 301120Z 3012/0112 16006KT P6SM SKC
     FM301800 23012G20KT P6SM SCT180
     FM302000 23018G32KT P6SM SCT120 BKN150
     FM010400 24010KT P6SM SCT150

CARSON CITY TAF FORECAST:
KCXP 301120Z 3012/0112 VRB03KT P6SM SKC
     FM301800 22012G20KT P6SM SCT180
     FM302000 24017G28KT P6SM SCT120 BKN150
     FM010400 24008KT P6SM SCT150

OUTLOOK FOR THE RENO-CARSON CITY-MINDEN AREA:
.SATURDAY...SUNNY. HIGHS 65 TO 70. SOUTHWEST WINDS 10 TO 20 MPH
WITH GUSTS UP TO 30 MPH.

SUNRISE AND SUNSET
SEPTEMBER 30 2016.....SUNRISE   655 AM PDT   SUNSET   642 PM PDT
OCTOBER  1 2016.......SUNRISE   656 AM PDT   SUNSET   641 PM PDT


USA.gov is the U.S. government's official web portal to all federal, state and local government web resources and services.